createdAt,value
2023-03-18T00:02:39.007Z,18.67
2023-03-18T00:03:41.974Z,15.55
2023-03-18T00:04:44.882Z,15.07
2023-03-18T00:05:47.293Z,15.67
2023-03-18T00:06:50.081Z,16.40
2023-03-18T00:07:52.816Z,13.43
2023-03-18T00:08:55.713Z,14.73
2023-03-18T00:09:58.889Z,17.60
2023-03-18T00:11:01.365Z,17.67
2023-03-18T00:12:04.535Z,14.15
2023-03-18T00:13:06.932Z,14.20
2023-03-18T00:14:09.933Z,15.48
2023-03-18T00:15:13.281Z,12.27
2023-03-18T00:16:15.942Z,13.53
2023-03-18T00:17:18.944Z,14.57
2023-03-18T00:18:21.720Z,13.57
2023-03-18T00:19:27.437Z,15.75
2023-03-18T00:20:38.833Z,14.38
2023-03-18T00:21:41.367Z,18.30
2023-03-18T00:22:45.484Z,17.65
2023-03-18T00:23:49.687Z,15.82
2023-03-18T00:24:53.096Z,15.93
2023-03-18T00:25:56.506Z,17.50
2023-03-18T00:26:58.924Z,15.97
2023-03-18T00:28:01.379Z,15.27
2023-03-18T00:29:04.267Z,15.55
2023-03-18T00:30:07.804Z,14.82
2023-03-18T00:31:11.239Z,16.75
2023-03-18T00:32:13.707Z,15.88
2023-03-18T00:33:16.621Z,15.48
2023-03-18T00:34:21.118Z,13.45
2023-03-18T00:35:24.731Z,19.25
2023-03-18T00:36:27.646Z,17.98
2023-03-18T00:37:33.705Z,16.97
2023-03-18T00:38:36.663Z,14.73
2023-03-18T00:39:44.351Z,14.90
2023-03-18T00:40:54.076Z,16.58
2023-03-18T00:41:57.069Z,16.27
2023-03-18T00:43:08.225Z,13.35
2023-03-18T00:44:11.585Z,13.70
2023-03-18T00:45:17.282Z,17.98
2023-03-18T00:46:20.143Z,15.73
2023-03-18T00:47:23.320Z,16.00
2023-03-18T00:48:28.306Z,16.40
2023-03-18T00:49:30.776Z,14.97
2023-03-18T00:50:34.035Z,15.00
2023-03-18T00:51:37.845Z,13.70
2023-03-18T00:52:40.316Z,14.80
2023-03-18T00:53:43.441Z,15.00
2023-03-18T00:54:45.997Z,12.98
2023-03-18T00:55:48.452Z,18.62
2023-03-18T00:56:51.807Z,16.23
2023-03-18T00:57:54.477Z,16.73
2023-03-18T00:58:57.427Z,14.17
2023-03-18T01:00:00.211Z,19.30
2023-03-18T01:01:03.636Z,16.17
2023-03-18T01:02:06.617Z,15.18
2023-03-18T01:03:09.155Z,13.55
2023-03-18T01:04:11.819Z,16.08
2023-03-18T01:05:14.530Z,14.38
2023-03-18T01:06:20.175Z,15.32
2023-03-18T01:07:23.333Z,16.30
2023-03-18T01:08:27.155Z,15.65
2023-03-18T01:09:29.767Z,15.97
2023-03-18T01:10:32.582Z,15.87
2023-03-18T01:11:35.469Z,17.42
2023-03-18T01:12:39.663Z,16.65
2023-03-18T01:13:42.128Z,13.73
2023-03-18T01:14:44.617Z,16.10
2023-03-18T01:15:48.223Z,16.15
2023-03-18T01:16:50.770Z,15.32
2023-03-18T01:17:57.044Z,15.10
2023-03-18T01:19:00.210Z,15.20
2023-03-18T01:20:04.061Z,13.67
2023-03-18T01:21:06.614Z,16.60
2023-03-18T01:22:09.694Z,16.42
2023-03-18T01:23:13.430Z,18.17
2023-03-18T01:24:16.301Z,14.63
2023-03-18T01:25:18.891Z,15.50
2023-03-18T01:26:26.342Z,13.65
2023-03-18T01:27:30.547Z,15.90
2023-03-18T01:28:35.728Z,15.50
2023-03-18T01:29:38.685Z,15.70
2023-03-18T01:30:42.384Z,13.23
2023-03-18T01:31:45.781Z,19.30
2023-03-18T01:32:49.050Z,17.48
2023-03-18T01:33:52.474Z,16.98
2023-03-18T01:34:54.981Z,15.80
2023-03-18T01:36:00.000Z,13.57
2023-03-18T01:37:03.686Z,14.60
2023-03-18T01:38:06.885Z,16.02
2023-03-18T01:39:10.339Z,15.40
2023-03-18T01:40:13.676Z,16.27
2023-03-18T01:41:17.360Z,19.30
2023-03-18T01:42:21.480Z,18.67
2023-03-18T01:43:25.485Z,13.70
2023-03-18T01:44:28.737Z,15.30
2023-03-18T01:45:31.843Z,15.07
2023-03-18T01:46:43.611Z,19.27
2023-03-18T01:47:46.780Z,19.58
2023-03-18T01:48:52.159Z,19.23
2023-03-18T01:49:55.027Z,14.68
2023-03-18T01:50:59.565Z,18.90
2023-03-18T01:52:28.517Z,16.03
2023-03-18T01:53:36.467Z,14.05
2023-03-18T01:54:41.188Z,20.08
2023-03-18T01:55:45.524Z,31.50
2023-03-18T01:56:48.741Z,23.60
2023-03-18T01:57:51.874Z,16.52
2023-03-18T01:58:55.478Z,16.90
2023-03-18T01:59:58.161Z,18.17
2023-03-18T02:01:03.493Z,17.40
2023-03-18T02:02:07.524Z,15.63
2023-03-18T02:03:10.575Z,15.30
2023-03-18T02:05:18.011Z,14.95
2023-03-18T02:06:20.624Z,16.73
2023-03-18T02:07:28.018Z,13.20
2023-03-18T02:08:30.540Z,16.98
2023-03-18T02:09:34.778Z,16.05
2023-03-18T02:10:39.821Z,14.07
2023-03-18T02:11:44.035Z,16.62
2023-03-18T02:12:56.313Z,14.45
2023-03-18T02:14:00.203Z,15.23
2023-03-18T02:15:04.760Z,17.33
2023-03-18T02:16:27.541Z,12.73
2023-03-18T02:17:33.351Z,13.05
2023-03-18T02:18:48.422Z,13.85
2023-03-18T02:20:03.119Z,14.70
2023-03-18T02:21:14.316Z,13.43
2023-03-18T02:22:29.380Z,13.65
2023-03-18T02:23:33.315Z,14.93
2023-03-18T02:24:42.643Z,16.65
2023-03-18T02:26:06.929Z,14.00
2023-03-18T02:27:15.708Z,14.00
2023-03-18T02:28:20.337Z,12.07
2023-03-18T02:29:23.750Z,12.25
2023-03-18T02:30:28.604Z,12.43
2023-03-18T02:31:32.297Z,15.30
2023-03-18T02:32:35.832Z,13.02
2023-03-18T02:33:40.618Z,14.82
2023-03-18T02:34:43.823Z,15.45
2023-03-18T02:35:47.656Z,11.55
2023-03-18T02:36:51.476Z,14.03
2023-03-18T02:37:53.880Z,16.12
2023-03-18T02:38:57.585Z,12.68
2023-03-18T02:40:15.658Z,12.45
2023-03-18T02:41:20.171Z,13.77
2023-03-18T02:42:29.562Z,17.62
2023-03-18T02:43:33.095Z,12.52
2023-03-18T02:44:39.535Z,12.27
2023-03-18T02:45:48.744Z,12.52
2023-03-18T02:47:03.031Z,14.13
2023-03-18T02:48:07.271Z,12.73
2023-03-18T02:49:10.185Z,11.85
2023-03-18T02:50:13.416Z,14.15
2023-03-18T02:51:16.419Z,15.18
2023-03-18T02:52:19.061Z,12.43
2023-03-18T02:53:21.445Z,14.68
2023-03-18T02:54:25.849Z,12.23
2023-03-18T02:55:28.716Z,13.57
2023-03-18T02:56:32.116Z,15.15
2023-03-18T02:57:36.776Z,12.80
2023-03-18T02:58:39.278Z,15.63
2023-03-18T02:59:42.000Z,15.60
2023-03-18T03:00:45.560Z,12.90
2023-03-18T03:01:49.063Z,15.20
2023-03-18T03:02:51.747Z,15.85
2023-03-18T03:03:54.287Z,13.43
2023-03-18T03:04:56.795Z,11.35
2023-03-18T03:05:59.626Z,16.17
2023-03-18T03:07:02.338Z,10.95
2023-03-18T03:08:06.370Z,11.60
2023-03-18T03:09:09.880Z,13.47
2023-03-18T03:10:13.482Z,12.13
2023-03-18T03:11:16.948Z,17.00
2023-03-18T03:12:19.911Z,15.93
2023-03-18T03:13:23.312Z,17.45
2023-03-18T03:14:27.246Z,11.55
2023-03-18T03:15:31.782Z,12.40
2023-03-18T03:16:35.531Z,16.35
2023-03-18T03:17:38.007Z,23.80
2023-03-18T03:18:40.673Z,22.23
2023-03-18T03:19:45.994Z,25.00
2023-03-18T03:20:50.948Z,32.63
2023-03-18T03:21:55.729Z,20.27
2023-03-18T03:23:00.048Z,15.27
2023-03-18T03:24:06.455Z,16.45
2023-03-18T03:25:09.935Z,16.77
2023-03-18T03:26:12.435Z,17.67
2023-03-18T03:27:15.185Z,19.23
2023-03-18T03:28:17.858Z,14.43
2023-03-18T03:29:20.460Z,15.65
2023-03-18T03:30:26.277Z,16.03
2023-03-18T03:31:28.792Z,15.32
2023-03-18T03:32:32.789Z,18.02
2023-03-18T03:33:35.543Z,16.33
2023-03-18T03:34:38.100Z,15.25
2023-03-18T03:35:41.750Z,14.05
2023-03-18T03:36:44.743Z,17.87
2023-03-18T03:37:48.160Z,17.52
2023-03-18T03:38:51.848Z,16.02
2023-03-18T03:39:54.426Z,18.75
2023-03-18T03:40:57.056Z,18.13
2023-03-18T03:41:59.613Z,16.30
2023-03-18T03:43:03.009Z,16.62
2023-03-18T03:44:06.376Z,16.90
2023-03-18T03:45:10.697Z,16.95
2023-03-18T03:46:13.200Z,21.15
2023-03-18T03:47:16.250Z,15.57
2023-03-18T03:48:19.112Z,20.58
2023-03-18T03:49:21.989Z,15.00
2023-03-18T03:50:24.472Z,25.48
2023-03-18T03:51:27.023Z,19.03
2023-03-18T03:52:29.652Z,21.55
2023-03-18T03:53:32.618Z,20.05
2023-03-18T03:54:35.118Z,21.10
2023-03-18T03:55:40.040Z,17.98
2023-03-18T03:56:43.134Z,20.50
2023-03-18T03:57:46.640Z,20.10
2023-03-18T03:58:49.750Z,20.45
2023-03-18T03:59:52.979Z,19.20
2023-03-18T04:00:56.102Z,21.35
2023-03-18T04:01:58.973Z,24.73
2023-03-18T04:03:01.808Z,24.23
2023-03-18T04:04:04.319Z,21.50
2023-03-18T04:05:08.129Z,23.50
2023-03-18T04:06:11.420Z,25.40
2023-03-18T04:07:15.501Z,24.70
2023-03-18T04:08:18.022Z,23.25
2023-03-18T04:09:20.628Z,21.25
2023-03-18T04:10:23.121Z,20.37
2023-03-18T04:11:26.025Z,19.83
2023-03-18T04:12:29.652Z,24.07
2023-03-18T04:13:32.239Z,27.58
2023-03-18T04:14:34.670Z,29.10
2023-03-18T04:15:38.049Z,21.65
2023-03-18T04:16:40.701Z,23.58
2023-03-18T04:17:44.613Z,20.92
2023-03-18T04:18:47.510Z,24.40
2023-03-18T04:19:50.922Z,20.58
2023-03-18T04:20:54.295Z,23.75
2023-03-18T04:21:57.740Z,23.10
2023-03-18T04:23:00.731Z,22.27
2023-03-18T04:24:06.840Z,20.83
2023-03-18T04:25:11.346Z,21.05
2023-03-18T04:26:14.482Z,23.48
2023-03-18T04:27:18.589Z,22.92
2023-03-18T04:28:22.093Z,21.62
2023-03-18T04:29:25.707Z,25.95
2023-03-18T04:30:28.590Z,20.92
2023-03-18T04:31:32.302Z,23.23
2023-03-18T04:32:35.120Z,22.75
2023-03-18T04:33:38.071Z,24.47
2023-03-18T04:34:40.661Z,25.55
2023-03-18T04:35:43.774Z,20.95
2023-03-18T04:36:46.765Z,23.40
2023-03-18T04:37:50.017Z,30.10
2023-03-18T04:38:52.909Z,25.98
2023-03-18T04:39:55.711Z,34.45
2023-03-18T04:40:58.649Z,55.28
2023-03-18T04:42:01.073Z,82.75
2023-03-18T04:43:03.732Z,60.47
2023-03-18T04:44:06.624Z,77.40
2023-03-18T04:45:09.781Z,59.47
2023-03-18T04:46:12.677Z,33.95
2023-03-18T04:47:15.564Z,29.70
2023-03-18T04:48:18.998Z,60.83
2023-03-18T04:49:22.109Z,75.22
2023-03-18T04:50:25.027Z,60.25
2023-03-18T04:51:27.647Z,53.63
2023-03-18T04:52:31.053Z,43.75
2023-03-18T04:53:33.600Z,29.85
2023-03-18T04:54:37.452Z,25.90
2023-03-18T04:55:40.255Z,42.38
2023-03-18T04:56:43.876Z,55.78
2023-03-18T04:57:46.414Z,34.05
2023-03-18T04:58:49.232Z,25.92
2023-03-18T04:59:52.264Z,23.38
2023-03-18T05:00:54.904Z,22.50
2023-03-18T05:01:57.757Z,23.00
2023-03-18T05:03:00.140Z,24.95
2023-03-18T05:04:02.904Z,21.08
2023-03-18T05:05:06.509Z,23.23
2023-03-18T05:06:17.104Z,22.17
2023-03-18T05:07:22.159Z,28.05
2023-03-18T05:08:25.410Z,23.00
2023-03-18T05:09:27.967Z,20.42
2023-03-18T05:10:31.518Z,20.45
2023-03-18T05:11:33.976Z,23.87
2023-03-18T05:12:37.412Z,23.77
2023-03-18T05:13:40.907Z,24.37
2023-03-18T05:14:44.211Z,22.48
2023-03-18T05:15:47.082Z,21.73
2023-03-18T05:16:49.928Z,20.88
2023-03-18T05:17:53.024Z,23.00
2023-03-18T05:18:56.018Z,25.65
2023-03-18T05:19:58.714Z,72.65
2023-03-18T05:21:05.246Z,99.93
2023-03-18T05:22:08.565Z,111.12
2023-03-18T05:23:11.762Z,115.78
2023-03-18T05:24:14.954Z,78.87
2023-03-18T05:25:17.537Z,38.92
2023-03-18T05:26:20.946Z,26.40
2023-03-18T05:27:23.993Z,29.70
2023-03-18T05:28:28.042Z,25.95
2023-03-18T05:29:33.780Z,35.30
2023-03-18T05:30:39.755Z,29.75
2023-03-18T05:31:43.851Z,35.55
2023-03-18T05:32:47.406Z,47.10
2023-03-18T05:33:50.116Z,46.20
2023-03-18T05:34:53.134Z,59.50
2023-03-18T05:35:59.482Z,44.90
2023-03-18T05:37:02.409Z,29.63
2023-03-18T05:38:05.048Z,62.97
2023-03-18T05:39:07.754Z,54.65
2023-03-18T05:40:12.049Z,26.87
2023-03-18T05:41:15.025Z,32.20
2023-03-18T05:42:18.254Z,29.87
2023-03-18T05:43:21.936Z,39.53
2023-03-18T05:44:24.632Z,50.85
2023-03-18T05:45:27.642Z,36.92
2023-03-18T05:46:30.188Z,33.38
2023-03-18T05:47:33.895Z,29.73
2023-03-18T05:48:36.966Z,27.10
2023-03-18T05:49:42.174Z,36.20
2023-03-18T05:50:46.994Z,27.02
2023-03-18T05:51:53.701Z,65.12
2023-03-18T05:53:01.037Z,106.05
2023-03-18T05:54:06.572Z,23.55
2023-03-18T05:55:09.833Z,27.60
2023-03-18T05:56:14.838Z,32.42
2023-03-18T05:57:17.770Z,32.90
2023-03-18T05:58:21.233Z,37.03
2023-03-18T05:59:24.291Z,25.87
2023-03-18T06:00:28.832Z,26.92
2023-03-18T06:01:33.157Z,38.80
2023-03-18T06:02:36.621Z,30.83
2023-03-18T06:03:39.226Z,58.75
2023-03-18T06:04:41.726Z,28.62
2023-03-18T06:05:44.469Z,50.97
2023-03-18T06:06:48.366Z,38.30
2023-03-18T06:07:54.401Z,38.03
2023-03-18T06:08:57.033Z,68.70
2023-03-18T06:09:59.418Z,42.23
2023-03-18T06:11:02.443Z,47.92
2023-03-18T06:12:05.664Z,41.45
2023-03-18T06:13:11.121Z,66.03
2023-03-18T06:14:13.615Z,49.90
2023-03-18T06:15:16.330Z,92.12
2023-03-18T06:16:19.001Z,27.42
2023-03-18T06:17:22.224Z,28.52
2023-03-18T06:18:24.865Z,21.17
2023-03-18T06:19:28.622Z,19.17
2023-03-18T06:20:32.368Z,22.47
2023-03-18T06:21:35.021Z,20.35
2023-03-18T06:22:39.429Z,19.33
2023-03-18T06:23:41.895Z,23.58
2023-03-18T06:24:45.237Z,21.48
2023-03-18T06:25:49.635Z,20.67
2023-03-18T06:26:53.396Z,18.02
2023-03-18T06:27:56.717Z,20.70
2023-03-18T06:28:59.896Z,20.48
2023-03-18T06:30:04.792Z,20.43
2023-03-18T06:31:10.916Z,20.03
2023-03-18T06:32:13.655Z,18.17
2023-03-18T06:33:16.667Z,17.55
2023-03-18T06:34:19.291Z,19.55
2023-03-18T06:35:21.927Z,29.08
2023-03-18T06:36:24.421Z,17.30
2023-03-18T06:37:27.146Z,17.65
2023-03-18T06:38:31.574Z,64.55
2023-03-18T06:39:34.899Z,18.05
2023-03-18T06:40:37.852Z,16.83
2023-03-18T06:41:40.872Z,19.07
2023-03-18T06:42:45.683Z,21.55
2023-03-18T06:43:50.646Z,17.67
2023-03-18T06:44:53.576Z,45.78
2023-03-18T06:45:56.924Z,35.97
2023-03-18T06:46:59.551Z,19.80
2023-03-18T06:48:02.642Z,19.00
2023-03-18T06:49:06.666Z,16.58
2023-03-18T06:50:10.433Z,18.75
2023-03-18T06:51:13.599Z,18.70
2023-03-18T06:52:17.386Z,19.33
2023-03-18T06:53:20.323Z,18.10
2023-03-18T06:54:23.236Z,19.45
2023-03-18T06:55:26.371Z,17.20
2023-03-18T06:56:29.076Z,18.55
2023-03-18T06:57:32.848Z,20.67
2023-03-18T06:58:35.617Z,17.73
2023-03-18T06:59:39.492Z,18.23
2023-03-18T07:00:45.460Z,20.35
2023-03-18T07:01:49.700Z,19.40
2023-03-18T07:02:53.155Z,22.83
2023-03-18T07:04:00.917Z,20.15
2023-03-18T07:05:04.794Z,20.85
2023-03-18T07:06:10.411Z,20.90
2023-03-18T07:07:13.262Z,29.85
2023-03-18T07:08:16.874Z,43.00
2023-03-18T07:09:19.791Z,31.73
2023-03-18T07:10:27.514Z,30.60
2023-03-18T07:11:31.530Z,21.02
2023-03-18T07:12:34.589Z,17.57
2023-03-18T07:13:37.464Z,19.03
2023-03-18T07:14:40.927Z,19.17
2023-03-18T07:15:44.172Z,18.52
2023-03-18T07:16:46.939Z,19.10
2023-03-18T07:17:50.561Z,18.35
2023-03-18T07:18:53.674Z,20.98
2023-03-18T07:19:56.948Z,16.55
2023-03-18T07:21:00.680Z,20.05
2023-03-18T07:22:03.504Z,17.15
2023-03-18T07:23:06.597Z,15.37
2023-03-18T07:24:09.174Z,27.07
2023-03-18T07:25:11.857Z,21.98
2023-03-18T07:26:14.771Z,21.50
2023-03-18T07:27:17.235Z,17.45
2023-03-18T07:28:20.549Z,20.60
2023-03-18T07:29:23.526Z,26.92
2023-03-18T07:30:27.360Z,23.87
2023-03-18T07:31:31.043Z,39.42
2023-03-18T07:32:33.639Z,30.85
2023-03-18T07:33:36.101Z,20.47
2023-03-18T07:34:38.471Z,15.63
2023-03-18T07:35:41.946Z,16.92
2023-03-18T07:36:45.249Z,19.33
2023-03-18T07:37:47.890Z,15.25
2023-03-18T07:38:51.062Z,21.17
2023-03-18T07:39:53.734Z,24.15
2023-03-18T07:40:56.967Z,28.42
2023-03-18T07:41:59.790Z,18.25
2023-03-18T07:43:04.556Z,21.75
2023-03-18T07:44:08.016Z,22.47
2023-03-18T07:45:10.909Z,43.10
2023-03-18T07:46:13.408Z,30.98
2023-03-18T07:47:16.312Z,18.33
2023-03-18T07:48:19.625Z,14.95
2023-03-18T07:49:22.136Z,18.62
2023-03-18T07:50:24.614Z,16.92
2023-03-18T07:51:27.450Z,16.05
2023-03-18T07:52:31.161Z,14.23
2023-03-18T07:53:34.119Z,16.98
2023-03-18T07:54:36.722Z,14.83
2023-03-18T07:55:39.192Z,20.33
2023-03-18T07:56:41.811Z,14.45
2023-03-18T07:57:44.651Z,16.73
2023-03-18T07:58:48.037Z,15.65
2023-03-18T07:59:51.047Z,17.55
2023-03-18T08:00:54.102Z,20.83
2023-03-18T08:01:57.391Z,18.70
2023-03-18T08:03:00.088Z,16.58
2023-03-18T08:04:05.681Z,15.10
2023-03-18T08:05:08.439Z,24.97
2023-03-18T08:06:11.499Z,17.77
2023-03-18T08:07:14.468Z,14.82
2023-03-18T08:08:17.814Z,22.85
2023-03-18T08:09:21.275Z,17.35
2023-03-18T08:10:25.441Z,16.75
2023-03-18T08:11:27.963Z,16.77
2023-03-18T08:12:45.314Z,16.60
2023-03-18T08:13:55.186Z,17.98
2023-03-18T08:14:58.061Z,15.18
2023-03-18T08:16:00.492Z,33.53
2023-03-18T08:17:03.850Z,27.40
2023-03-18T08:18:09.338Z,23.87
2023-03-18T08:19:12.173Z,18.92
2023-03-18T08:20:15.533Z,19.77
2023-03-18T08:21:17.964Z,19.08
2023-03-18T08:22:20.342Z,21.58
2023-03-18T08:23:23.795Z,29.42
2023-03-18T08:24:26.741Z,22.25
2023-03-18T08:25:29.142Z,17.80
2023-03-18T08:26:31.666Z,18.77
2023-03-18T08:27:34.116Z,18.00
2023-03-18T08:28:36.834Z,17.25
2023-03-18T08:29:39.266Z,38.75
2023-03-18T08:30:41.915Z,33.35
2023-03-18T08:31:44.495Z,32.38
2023-03-18T08:32:47.204Z,86.37
2023-03-18T08:33:54.378Z,34.00
2023-03-18T08:34:58.023Z,33.75
2023-03-18T08:36:01.363Z,22.30
2023-03-18T08:37:05.132Z,23.53
2023-03-18T08:38:08.420Z,29.47
2023-03-18T08:39:11.791Z,19.30
2023-03-18T08:40:14.974Z,19.25
2023-03-18T08:41:17.377Z,14.55
2023-03-18T08:42:20.392Z,56.37
2023-03-18T08:43:23.528Z,41.03
2023-03-18T08:44:26.551Z,26.67
2023-03-18T08:45:29.579Z,22.60
2023-03-18T08:46:32.172Z,19.48
2023-03-18T08:47:35.407Z,16.00
2023-03-18T08:48:38.382Z,27.87
2023-03-18T08:49:41.679Z,21.58
2023-03-18T08:50:45.543Z,22.77
2023-03-18T08:51:48.497Z,20.17
2023-03-18T08:52:51.609Z,20.17
2023-03-18T08:53:54.907Z,19.75
2023-03-18T08:54:58.625Z,18.37
2023-03-18T08:56:03.400Z,18.17
2023-03-18T08:57:06.390Z,17.90
2023-03-18T08:58:09.730Z,21.27
2023-03-18T08:59:13.969Z,22.53
2023-03-18T09:00:17.054Z,23.60
2023-03-18T09:01:22.531Z,24.63
2023-03-18T09:02:27.183Z,16.52
2023-03-18T09:03:30.534Z,13.20
2023-03-18T09:04:33.262Z,15.40
2023-03-18T09:05:36.101Z,38.50
2023-03-18T09:06:38.943Z,48.13
2023-03-18T09:07:42.402Z,15.82
2023-03-18T09:08:46.064Z,22.52
2023-03-18T09:09:48.999Z,23.10
2023-03-18T09:10:53.704Z,17.50
2023-03-18T09:11:56.474Z,18.12
2023-03-18T09:13:01.153Z,15.98
2023-03-18T09:14:04.939Z,18.60
2023-03-18T09:15:10.155Z,26.35
2023-03-18T09:16:13.110Z,32.75
2023-03-18T09:17:16.942Z,15.68
2023-03-18T09:18:20.053Z,25.80
2023-03-18T09:19:22.778Z,21.80
2023-03-18T09:20:25.416Z,17.53
2023-03-18T09:21:29.244Z,18.25
2023-03-18T09:22:32.291Z,21.23
2023-03-18T09:23:35.638Z,27.48
2023-03-18T09:24:41.096Z,16.48
2023-03-18T09:25:44.416Z,13.68
2023-03-18T09:26:47.840Z,12.18
2023-03-18T09:27:50.577Z,12.68
2023-03-18T09:28:53.018Z,11.63
2023-03-18T09:29:56.891Z,15.35
2023-03-18T09:30:59.733Z,15.70
2023-03-18T09:32:02.881Z,14.85
2023-03-18T09:33:09.377Z,17.30
2023-03-18T09:34:13.738Z,16.90
2023-03-18T09:35:23.781Z,13.77
2023-03-18T09:36:27.370Z,14.13
2023-03-18T09:37:30.840Z,15.82
2023-03-18T09:38:33.432Z,14.25
2023-03-18T09:39:37.407Z,14.63
2023-03-18T09:40:48.596Z,14.38
2023-03-18T09:41:51.068Z,11.93
2023-03-18T09:42:55.727Z,13.05
2023-03-18T09:44:04.668Z,16.85
2023-03-18T09:45:18.280Z,14.38
2023-03-18T09:46:47.079Z,25.20
2023-03-18T09:48:09.022Z,12.60
2023-03-18T09:49:16.101Z,10.70
2023-03-18T09:50:27.787Z,11.05
2023-03-18T09:51:37.376Z,12.98
2023-03-18T09:52:52.710Z,11.68
2023-03-18T09:54:03.995Z,11.70
2023-03-18T09:55:24.005Z,11.57
2023-03-18T09:56:29.002Z,10.85
2023-03-18T09:57:42.879Z,114.25
2023-03-18T09:58:57.631Z,21.65
2023-03-18T10:00:11.663Z,25.88
2023-03-18T10:01:15.894Z,28.77
2023-03-18T10:02:22.436Z,27.10
2023-03-18T10:03:30.616Z,21.20
2023-03-18T10:04:42.994Z,19.60
2023-03-18T10:05:52.256Z,27.60
2023-03-18T10:06:58.496Z,17.35
2023-03-18T10:08:04.912Z,23.48
2023-03-18T10:09:17.006Z,10.32
2023-03-18T10:10:39.954Z,9.95
2023-03-18T10:11:49.047Z,11.23
2023-03-18T10:13:08.606Z,11.50
2023-03-18T10:14:19.858Z,9.57
2023-03-18T10:15:34.198Z,18.65
2023-03-18T10:16:44.329Z,11.23
2023-03-18T10:17:51.757Z,9.30
2023-03-18T10:18:55.035Z,9.50
2023-03-18T10:19:59.083Z,9.20
2023-03-18T10:21:04.379Z,11.02
2023-03-18T10:22:06.802Z,9.45
2023-03-18T10:23:35.974Z,10.50
2023-03-18T10:24:57.312Z,10.82
2023-03-18T10:26:04.881Z,10.15
2023-03-18T10:27:08.983Z,12.55
2023-03-18T10:28:15.442Z,12.30
2023-03-18T10:29:29.968Z,9.63
2023-03-18T10:30:49.277Z,11.70
2023-03-18T10:31:52.358Z,8.57
2023-03-18T10:33:01.874Z,9.95
2023-03-18T10:34:13.338Z,13.50
2023-03-18T10:35:15.821Z,10.27
2023-03-18T10:36:19.834Z,10.52
2023-03-18T10:37:22.586Z,11.32
2023-03-18T10:38:37.715Z,15.13
2023-03-18T10:39:40.690Z,16.27
2023-03-18T10:40:43.199Z,14.63
2023-03-18T10:41:50.326Z,14.27
2023-03-18T10:42:53.918Z,11.07
2023-03-18T10:43:57.132Z,9.90
2023-03-18T10:45:08.947Z,9.80
2023-03-18T10:46:14.508Z,8.25
2023-03-18T10:47:21.198Z,10.98
2023-03-18T10:48:27.451Z,10.07
2023-03-18T10:49:35.703Z,16.23
2023-03-18T10:50:42.591Z,9.63
2023-03-18T10:51:50.221Z,13.63
2023-03-18T10:53:02.556Z,9.60
2023-03-18T10:54:11.134Z,11.75
2023-03-18T10:55:15.697Z,10.75
2023-03-18T10:56:19.148Z,8.50
2023-03-18T10:57:22.160Z,9.55
2023-03-18T10:58:24.914Z,9.60
2023-03-18T10:59:28.666Z,20.05
2023-03-18T11:00:35.920Z,34.13
2023-03-18T11:01:39.768Z,13.32
2023-03-18T11:02:42.403Z,9.17
2023-03-18T11:03:50.592Z,9.65
2023-03-18T11:05:04.767Z,13.57
2023-03-18T11:06:13.370Z,10.25
2023-03-18T11:07:18.926Z,10.18
2023-03-18T11:08:29.104Z,10.73
2023-03-18T11:09:34.053Z,10.80
2023-03-18T11:10:39.804Z,10.32
2023-03-18T11:11:43.627Z,18.73
2023-03-18T11:12:46.034Z,16.33
2023-03-18T11:13:53.164Z,12.20
2023-03-18T11:14:56.584Z,13.60
2023-03-18T11:15:59.364Z,9.93
2023-03-18T11:17:03.826Z,10.07
2023-03-18T11:18:14.312Z,11.70
2023-03-18T11:19:17.035Z,8.57
2023-03-18T11:20:22.208Z,8.73
2023-03-18T11:21:29.418Z,7.53
2023-03-18T11:22:33.236Z,8.48
2023-03-18T11:23:56.177Z,9.02
2023-03-18T11:25:02.604Z,7.87
2023-03-18T11:26:08.314Z,11.23
2023-03-18T11:27:13.540Z,11.93
2023-03-18T11:28:21.095Z,9.63
2023-03-18T11:29:26.674Z,12.35
2023-03-18T11:30:40.715Z,26.27
2023-03-18T11:31:59.412Z,25.37
2023-03-18T11:33:07.472Z,10.13
2023-03-18T11:34:10.347Z,11.95
2023-03-18T11:35:21.535Z,11.15
2023-03-18T11:36:24.411Z,10.40
2023-03-18T11:39:37.656Z,57.20
2023-03-18T11:40:40.885Z,10.20
2023-03-18T11:41:43.474Z,11.38
2023-03-18T11:42:47.497Z,21.27
2023-03-18T11:43:55.975Z,9.35
2023-03-18T11:45:01.449Z,9.75
2023-03-18T11:46:08.506Z,8.63
2023-03-18T11:47:17.590Z,8.55
2023-03-18T11:48:46.906Z,8.67
2023-03-18T11:49:49.353Z,7.37
2023-03-18T11:51:03.911Z,9.95
2023-03-18T11:52:25.830Z,7.72
2023-03-18T11:53:51.835Z,6.82
2023-03-18T11:55:07.002Z,7.95
2023-03-18T11:56:20.219Z,7.70
2023-03-18T11:57:30.190Z,14.90
2023-03-18T11:58:48.444Z,7.45
2023-03-18T12:00:06.809Z,7.93
2023-03-18T12:01:21.967Z,9.40
2023-03-18T12:02:29.518Z,6.93
2023-03-18T12:03:44.267Z,77.87
2023-03-18T12:04:54.188Z,14.50
2023-03-18T12:06:01.121Z,6.20
2023-03-18T12:07:23.633Z,7.25
2023-03-18T12:08:39.384Z,8.65
2023-03-18T12:09:49.944Z,15.00
2023-03-18T12:11:06.677Z,37.20
2023-03-18T12:12:42.125Z,9.07
2023-03-18T12:14:04.644Z,11.33
2023-03-18T12:15:22.553Z,9.00
2023-03-18T12:16:25.546Z,6.53
2023-03-18T12:17:46.895Z,7.47
2023-03-18T12:18:49.712Z,9.48
2023-03-18T12:20:27.748Z,7.25
2023-03-18T12:21:36.196Z,7.55
2023-03-18T12:22:51.651Z,6.93
2023-03-18T12:24:14.834Z,6.62
2023-03-18T12:25:23.226Z,10.13
2023-03-18T12:26:31.729Z,8.07
2023-03-18T12:27:35.375Z,9.45
2023-03-18T12:28:38.812Z,6.35
2023-03-18T12:29:59.690Z,7.37
2023-03-18T12:31:11.223Z,7.87
2023-03-18T12:32:21.304Z,7.22
2023-03-18T12:33:27.172Z,7.22
2023-03-18T12:34:39.137Z,6.53
2023-03-18T12:36:00.233Z,10.15
2023-03-18T12:37:35.533Z,14.52
2023-03-18T12:38:45.509Z,9.23
2023-03-18T12:39:49.313Z,9.68
2023-03-18T12:41:25.076Z,7.18
2023-03-18T12:42:27.858Z,8.55
2023-03-18T12:43:38.489Z,8.55
2023-03-18T12:50:43.135Z,9.18
2023-03-18T12:51:50.949Z,8.43
2023-03-18T12:52:55.507Z,8.85
2023-03-18T12:54:03.262Z,6.72
2023-03-18T12:55:17.260Z,9.18
2023-03-18T12:56:21.756Z,7.12
2023-03-18T12:57:44.294Z,8.35
2023-03-18T12:58:50.413Z,7.85
2023-03-18T12:59:59.226Z,9.85
2023-03-18T13:01:18.567Z,10.07
2023-03-18T13:02:40.143Z,8.43
2023-03-18T13:03:44.758Z,7.33
2023-03-18T13:04:55.198Z,9.23
2023-03-18T13:06:05.284Z,8.30
2023-03-18T13:07:21.187Z,8.25
2023-03-18T13:08:38.570Z,7.57
2023-03-18T13:09:48.843Z,7.37
2023-03-18T13:11:04.456Z,7.25
2023-03-18T13:12:09.943Z,7.62
2023-03-18T13:13:13.882Z,7.32
2023-03-18T13:14:29.282Z,10.82
2023-03-18T13:15:53.129Z,9.77
2023-03-18T13:16:58.522Z,7.75
2023-03-18T13:18:12.388Z,6.87
2023-03-18T13:19:15.235Z,8.15
2023-03-18T13:20:33.872Z,6.45
2023-03-18T13:21:43.891Z,7.15
2023-03-18T13:22:53.836Z,8.35
2023-03-18T13:24:11.284Z,7.03
2023-03-18T13:25:14.421Z,9.32
2023-03-18T13:26:29.480Z,10.80
2023-03-18T13:27:37.885Z,7.87
2023-03-18T13:28:57.505Z,7.05
2023-03-18T13:30:12.466Z,7.60
2023-03-18T13:31:22.666Z,10.20
2023-03-18T13:32:43.762Z,6.65
2023-03-18T13:33:55.145Z,7.68
2023-03-18T13:35:16.775Z,8.52
2023-03-18T13:36:19.204Z,8.88
2023-03-18T13:37:27.841Z,9.57
2023-03-18T13:38:52.992Z,7.60
2023-03-18T13:39:56.898Z,9.10
2023-03-18T13:41:02.451Z,7.37
2023-03-18T13:42:08.108Z,8.02
2023-03-18T13:43:18.576Z,7.78
2023-03-18T13:44:36.265Z,6.68
2023-03-18T13:45:41.401Z,13.27
2023-03-18T13:46:53.629Z,8.95
2023-03-18T13:47:59.210Z,8.88
2023-03-18T13:49:02.556Z,7.05
2023-03-18T13:50:07.553Z,7.40
2023-03-18T13:51:30.659Z,7.30
2023-03-18T13:52:40.526Z,8.75
2023-03-18T13:53:44.069Z,8.65
2023-03-18T13:54:48.382Z,7.40
2023-03-18T13:55:56.714Z,7.87
2023-03-18T13:57:17.026Z,8.63
2023-03-18T13:58:23.005Z,6.97
2023-03-18T13:59:34.576Z,9.88
2023-03-18T14:00:40.774Z,8.32
2023-03-18T14:01:50.866Z,8.43
2023-03-18T14:03:20.117Z,7.57
2023-03-18T14:04:32.614Z,8.23
2023-03-18T14:05:37.242Z,8.93
2023-03-18T14:06:47.167Z,9.95
2023-03-18T14:07:50.427Z,7.62
2023-03-18T14:08:54.047Z,11.23
2023-03-18T14:10:18.260Z,7.03
2023-03-18T14:11:26.455Z,7.78
2023-03-18T14:12:33.005Z,8.32
2023-03-18T14:13:36.266Z,6.65
2023-03-18T14:14:39.009Z,7.57
2023-03-18T14:15:44.595Z,7.80
2023-03-18T14:16:51.509Z,7.75
2023-03-18T14:17:58.914Z,8.32
2023-03-18T14:19:22.242Z,9.50
2023-03-18T14:20:26.475Z,21.05
2023-03-18T14:21:30.482Z,6.55
2023-03-18T14:22:36.995Z,6.68
2023-03-18T14:23:46.021Z,8.15
2023-03-18T14:25:09.130Z,8.10